Time;durP1;ratioP1;P1;durP2;ratioP2;P2;SDS_P1;SDS_P2;PMS_P1;PMS_P2;Temp;Humidity;BMP_temperature;BMP_pressure;BME280_temperature;BME280_humidity;BME280_pressure;Samples;Min_cycle;Max_cycle;Signal;HPM_P1;HPM_P2
2022/07/26 00:00:21;;;;;;;7.28;1.95;;;;;;;16.78;90.39;101159.50;5255472;28;20031;-67
2022/07/26 00:02:52;;;;;;;6.43;1.92;;;;;;;16.82;91.59;101168.16;5261162;28;20032;-67
2022/07/26 00:05:23;;;;;;;5.65;2.55;;;;;;;16.82;91.12;101170.88;5261599;28;20032;-67
2022/07/26 00:08:09;;;;;;;7.00;1.88;;;;;;;16.83;90.35;101176.06;5261665;28;20077;-67
2022/07/26 00:10:43;;;;;;;8.20;2.42;;;;;;;17.00;92.81;101173.59;5264910;28;20027;-67
2022/07/26 00:13:17;;;;;;;7.22;2.42;;;;;;;16.90;91.26;101173.66;5255134;28;20060;-67
2022/07/26 00:15:50;;;;;;;7.18;1.95;;;;;;;16.90;90.26;101175.50;5259483;28;20774;-67
2022/07/26 00:18:21;;;;;;;9.50;2.20;;;;;;;16.85;90.65;101168.69;5260437;28;20032;-67
2022/07/26 00:20:52;;;;;;;6.28;2.20;;;;;;;16.96;92.59;101166.81;5251676;28;20028;-67
2022/07/26 00:23:24;;;;;;;8.50;1.83;;;;;;;16.96;92.27;101167.66;5253484;28;20066;-67
2022/07/26 00:25:55;;;;;;;4.95;1.80;;;;;;;16.86;91.19;101161.47;5262956;28;20025;-67
2022/07/26 00:28:26;;;;;;;4.80;1.70;;;;;;;16.84;91.16;101175.09;5255096;28;20024;-67
2022/07/26 00:30:58;;;;;;;6.72;2.08;;;;;;;16.85;90.80;101174.09;5256721;28;20025;-67
2022/07/26 00:33:29;;;;;;;5.55;1.63;;;;;;;16.79;91.09;101177.34;5261201;28;20033;-67
2022/07/26 00:36:00;;;;;;;5.43;1.58;;;;;;;16.79;91.81;101179.22;5257968;28;20424;-67
2022/07/26 00:38:31;;;;;;;9.80;1.90;;;;;;;16.77;91.82;101182.03;5263451;28;20043;-67
2022/07/26 00:41:04;;;;;;;6.90;1.75;;;;;;;16.77;92.16;101186.59;5262750;28;20452;-67
2022/07/26 00:43:35;;;;;;;5.75;1.70;;;;;;;16.77;93.01;101178.50;5261644;28;20040;-67
2022/07/26 00:46:06;;;;;;;8.80;2.38;;;;;;;16.80;92.71;101184.44;5257659;28;20051;-67
2022/07/26 00:48:38;;;;;;;7.68;2.30;;;;;;;16.80;92.10;101184.44;5260321;28;20497;-67
2022/07/26 00:51:09;;;;;;;6.70;2.10;;;;;;;16.85;91.61;101184.88;5254092;28;20025;-67
2022/07/26 00:53:41;;;;;;;5.68;1.65;;;;;;;16.85;92.07;101184.88;5257281;28;20485;-67
2022/07/26 00:56:15;;;;;;;8.13;1.92;;;;;;;16.83;92.05;101178.78;5257092;28;20531;-67
2022/07/26 00:58:46;;;;;;;7.07;1.70;;;;;;;16.98;93.42;101186.38;5255864;28;20049;-67
2022/07/26 01:01:17;;;;;;;7.43;1.92;;;;;;;16.88;92.44;101174.81;5256736;28;20025;-67
2022/07/26 01:03:51;;;;;;;7.43;2.28;;;;;;;16.87;92.75;101176.63;5254357;28;20535;-67
2022/07/26 01:06:23;;;;;;;9.77;2.10;;;;;;;16.98;93.11;101181.81;5267701;28;20246;-67
2022/07/26 01:08:54;;;;;;;7.35;2.35;;;;;;;16.96;93.55;101178.44;5264125;28;20110;-67
2022/07/26 01:11:26;;;;;;;6.05;1.90;;;;;;;16.98;92.73;101175.59;5259283;28;20094;-68
2022/07/26 01:13:57;;;;;;;7.43;2.50;;;;;;;16.93;92.77;101175.19;5263744;28;20028;-67
2022/07/26 01:16:28;;;;;;;7.78;2.42;;;;;;;17.02;94.08;101185.06;5259246;28;20054;-67
2022/07/26 01:19:00;;;;;;;4.90;1.85;;;;;;;16.99;93.29;101175.44;5271270;28;20028;-67
2022/07/26 01:21:32;;;;;;;8.35;2.05;;;;;;;17.09;94.90;101163.75;5258177;28;20698;-67
2022/07/26 01:24:04;;;;;;;7.55;2.42;;;;;;;16.97;93.00;101168.50;5263178;28;20028;-67
2022/07/26 01:26:35;;;;;;;7.50;2.33;;;;;;;17.03;94.12;101167.91;5258546;28;20057;-67
2022/07/26 01:29:07;;;;;;;10.68;2.20;;;;;;;16.93;93.62;101167.97;5258968;28;20052;-67
2022/07/26 01:31:38;;;;;;;8.30;2.20;;;;;;;16.95;94.00;101157.88;5260635;28;20047;-66
2022/07/26 01:34:09;;;;;;;9.27;2.00;;;;;;;16.97;94.22;101161.28;5264645;28;20036;-67
2022/07/26 01:36:40;;;;;;;6.82;2.45;;;;;;;16.94;94.67;101161.56;5263976;28;20028;-67
2022/07/26 01:39:12;;;;;;;8.98;2.25;;;;;;;17.01;95.07;101162.66;5263424;28;20532;-66
2022/07/26 01:41:43;;;;;;;12.05;2.80;;;;;;;16.93;96.29;101165.28;5261424;28;20117;-67
2022/07/26 01:44:14;;;;;;;9.65;2.30;;;;;;;16.87;96.31;101163.16;5257490;28;20048;-67
2022/07/26 01:46:45;;;;;;;7.00;2.47;;;;;;;16.83;97.69;101169.84;5257154;28;20162;-67
2022/07/26 01:49:17;;;;;;;8.90;2.47;;;;;;;16.79;99.12;101169.25;5261052;28;20029;-66
2022/07/26 01:51:48;;;;;;;10.50;3.20;;;;;;;16.82;99.48;101170.88;5259826;28;20036;-66
2022/07/26 01:54:19;;;;;;;10.52;2.50;;;;;;;16.97;100.00;101171.19;5257574;28;20036;-67
2022/07/26 01:56:51;;;;;;;9.98;2.95;;;;;;;16.87;99.18;101159.63;5261783;28;20048;-67
2022/07/26 01:59:22;;;;;;;11.95;2.97;;;;;;;16.84;98.40;101175.09;5263256;28;20329;-67
2022/07/26 02:01:53;;;;;;;11.10;2.92;;;;;;;16.88;98.98;101175.66;5258974;28;20534;-66
2022/07/26 02:07:14;;;;;;;9.90;2.95;;;;;;;16.90;98.51;101178.19;5267802;28;20074;-67
2022/07/26 02:09:46;;;;;;;12.80;3.38;;;;;;;16.87;98.91;101173.09;5260809;28;20024;-67
2022/07/26 02:12:17;;;;;;;9.88;3.15;;;;;;;16.98;100.00;101181.81;5255977;28;20467;-67
2022/07/26 02:14:49;;;;;;;12.32;2.80;;;;;;;16.90;98.93;101173.66;5270356;28;20024;-66
2022/07/26 02:17:20;;;;;;;12.75;3.45;;;;;;;16.90;99.02;101178.19;5258611;28;20470;-67
2022/07/26 02:19:51;;;;;;;11.00;2.63;;;;;;;16.88;98.88;101175.66;5264692;28;20485;-67
2022/07/26 02:22:23;;;;;;;10.18;3.08;;;;;;;16.88;99.32;101174.81;5259914;28;20037;-67
2022/07/26 02:24:54;;;;;;;13.38;3.53;;;;;;;16.90;99.61;101173.66;5260882;28;20225;-67
2022/07/26 02:27:25;;;;;;;11.63;3.05;;;;;;;16.90;99.38;101173.66;5264816;28;20033;-69
2022/07/26 02:29:57;;;;;;;9.98;3.13;;;;;;;16.98;100.00;101186.38;5262639;28;20057;-67
2022/07/26 02:32:28;;;;;;;10.88;3.30;;;;;;;17.02;100.00;101180.50;5269795;28;20033;-67
2022/07/26 02:34:59;;;;;;;13.30;3.30;;;;;;;16.93;99.85;101184.13;5266566;28;20039;-67
2022/07/26 02:37:31;;;;;;;8.43;2.83;;;;;;;16.89;99.88;101192.66;5262792;28;20483;-67
2022/07/26 02:40:03;;;;;;;14.30;3.42;;;;;;;16.87;100.00;101190.09;5261376;28;20545;-67
2022/07/26 02:42:34;;;;;;;12.30;3.28;;;;;;;16.84;100.00;101193.13;5261398;28;21429;-67
2022/07/26 02:45:06;;;;;;;13.85;3.80;;;;;;;16.87;100.00;101195.50;5255988;28;20599;-66
2022/07/26 02:47:45;;;;;;;12.50;3.28;;;;;;;16.83;100.00;101196.81;5262084;28;20112;-67
2022/07/26 02:50:19;;;;;;;11.70;3.38;;;;;;;16.79;100.00;101198.91;5265167;28;20031;-67
2022/07/26 02:52:51;;;;;;;16.97;4.10;;;;;;;16.87;100.00;101198.19;5257601;28;20040;-67
2022/07/26 02:55:24;;;;;;;14.93;4.15;;;;;;;16.84;100.00;101199.34;5260541;28;20717;-67
2022/07/26 02:57:55;;;;;;;12.80;3.75;;;;;;;16.82;100.00;101205.91;5259261;28;20049;-67
2022/07/26 03:00:26;;;;;;;12.20;3.63;;;;;;;16.81;100.00;101207.69;5267511;28;20063;-66
2022/07/26 03:02:59;;;;;;;11.68;3.80;;;;;;;16.85;100.00;101203.72;5260837;28;20036;-67
2022/07/26 03:05:30;;;;;;;10.38;3.60;;;;;;;16.90;100.00;101205.16;5264408;28;20107;-67
2022/07/26 03:08:02;;;;;;;14.68;3.95;;;;;;;16.84;100.00;101217.38;5268444;28;20062;-67
2022/07/26 03:10:33;;;;;;;15.48;4.07;;;;;;;16.81;100.00;101213.06;5262690;28;20498;-67
2022/07/26 03:13:04;;;;;;;15.50;3.85;;;;;;;16.81;100.00;101215.78;5259491;28;20448;-67
2022/07/26 03:15:36;;;;;;;13.45;3.95;;;;;;;16.92;100.00;101212.06;5258806;28;20028;-66
2022/07/26 03:18:07;;;;;;;15.73;4.10;;;;;;;16.84;100.00;101220.06;5263375;28;20135;-67
2022/07/26 03:20:39;;;;;;;12.75;3.83;;;;;;;16.89;100.00;101220.44;5265007;28;20040;-67
2022/07/26 03:23:10;;;;;;;16.42;4.15;;;;;;;16.83;100.00;101221.06;5261061;28;20116;-67
2022/07/26 03:25:41;;;;;;;16.73;4.05;;;;;;;16.88;100.00;101228.72;5263728;28;20033;-67
2022/07/26 03:28:13;;;;;;;17.77;4.60;;;;;;;16.86;100.00;101231.56;5261487;28;21447;-66
2022/07/26 03:30:44;;;;;;;16.35;4.43;;;;;;;16.88;100.00;101229.56;5258659;28;20034;-67
2022/07/26 03:33:15;;;;;;;15.95;4.22;;;;;;;16.86;100.00;101231.56;5261535;28;20029;-67
2022/07/26 03:35:47;;;;;;;14.20;4.05;;;;;;;16.89;100.00;101239.31;5263916;28;20490;-66
2022/07/26 03:38:18;;;;;;;16.38;4.35;;;;;;;16.85;100.00;101249.53;5265014;28;20115;-67
2022/07/26 03:40:50;;;;;;;14.55;3.72;;;;;;;16.83;100.00;101248.00;5265468;28;20090;-67
2022/07/26 03:43:21;;;;;;;14.93;4.38;;;;;;;16.80;100.00;101248.28;5265319;28;20486;-67
2022/07/26 03:45:52;;;;;;;12.15;3.78;;;;;;;16.82;100.00;101255.25;5254844;28;20037;-67
2022/07/26 03:48:23;;;;;;;17.08;4.63;;;;;;;16.78;100.00;101248.44;5256609;28;20047;-67
2022/07/26 03:50:55;;;;;;;12.48;4.60;;;;;;;16.78;100.00;101234.97;5259953;28;20482;-67
2022/07/26 03:53:26;;;;;;;11.55;4.15;;;;;;;16.83;100.00;101235.38;5257933;28;20398;-67
2022/07/26 03:58:47;;;;;;;15.35;4.35;;;;;;;16.76;100.00;101247.72;5255502;28;20054;-67
2022/07/26 04:01:18;;;;;;;15.52;4.22;;;;;;;16.75;100.00;101247.88;5253586;28;20068;-67
2022/07/26 04:03:50;;;;;;;12.82;5.05;;;;;;;16.76;100.00;101258.50;5256821;28;20557;-67
2022/07/26 04:06:22;;;;;;;12.43;4.55;;;;;;;16.75;100.00;101253.25;5264089;28;20505;-67
2022/07/26 04:08:53;;;;;;;14.82;4.70;;;;;;;16.75;100.00;101250.56;5258614;28;20106;-67
2022/07/26 04:11:25;;;;;;;15.75;5.10;;;;;;;16.82;100.00;101257.94;5256115;28;20028;-67
2022/07/26 04:13:57;;;;;;;14.20;4.28;;;;;;;16.79;100.00;101258.19;5258875;28;20028;-67
2022/07/26 04:16:28;;;;;;;12.50;4.53;;;;;;;16.86;100.00;101250.41;5262040;28;20482;-67
2022/07/26 04:19:00;;;;;;;15.18;4.45;;;;;;;16.83;100.00;101254.25;5256587;28;20079;-67
2022/07/26 04:21:31;;;;;;;13.73;4.70;;;;;;;16.92;100.00;101244.44;5256035;28;20041;-67
2022/07/26 04:24:03;;;;;;;13.10;4.25;;;;;;;16.94;100.00;101255.91;5257230;28;20366;-67
2022/07/26 04:26:34;;;;;;;15.00;4.32;;;;;;;16.97;100.00;101255.63;5261491;28;20505;-67
2022/07/26 04:29:07;;;;;;;13.23;4.20;;;;;;;16.95;100.00;101264.81;5257180;28;20140;-67
2022/07/26 04:31:38;;;;;;;15.57;4.13;;;;;;;16.97;100.00;101265.53;5258833;28;20025;-67
2022/07/26 04:34:09;;;;;;;14.13;4.53;;;;;;;16.94;100.00;101264.00;5258891;28;20051;-67
2022/07/26 04:36:40;;;;;;;14.55;4.93;;;;;;;16.94;100.00;101271.22;5263878;28;20111;-67
2022/07/26 04:39:12;;;;;;;13.63;4.45;;;;;;;17.00;100.00;101271.47;5263672;28;20037;-67
2022/07/26 04:41:43;;;;;;;10.02;3.60;;;;;;;17.07;100.00;101268.19;5263688;28;20078;-67
2022/07/26 04:44:15;;;;;;;13.15;4.57;;;;;;;17.02;100.00;101264.09;5264477;28;20036;-67
2022/07/26 04:46:47;;;;;;;10.90;4.05;;;;;;;17.02;100.00;101269.47;5260261;28;20028;-67
2022/07/26 04:49:18;;;;;;;11.48;4.47;;;;;;;17.05;100.00;101263.81;5260246;28;20383;-67
2022/07/26 04:51:49;;;;;;;13.38;4.60;;;;;;;17.04;100.00;101267.47;5258635;28;22440;-67
2022/07/26 04:54:21;;;;;;;11.77;4.53;;;;;;;17.05;100.00;101271.03;5266017;28;20041;-69
2022/07/26 04:56:53;;;;;;;12.88;4.60;;;;;;;17.04;100.00;101269.34;5268935;28;20512;-66
2022/07/26 04:59:24;;;;;;;17.25;4.38;;;;;;;17.03;100.00;101281.13;5260641;28;20206;-66
2022/07/26 05:01:55;;;;;;;14.32;4.40;;;;;;;17.01;100.00;101283.97;5268420;28;20024;-66
2022/07/26 05:04:26;;;;;;;10.13;3.97;;;;;;;16.98;100.00;101286.94;5267202;28;20024;-66
2022/07/26 05:07:01;;;;;;;14.35;4.80;;;;;;;16.94;100.00;101285.56;5257987;28;20036;-66
2022/07/26 05:09:32;;;;;;;13.70;4.70;;;;;;;16.96;100.00;101280.03;5268832;28;20032;-67
2022/07/26 05:12:04;;;;;;;13.18;4.38;;;;;;;16.90;100.00;101280.63;5271728;28;20024;-67
2022/07/26 05:14:38;;;;;;;14.20;4.20;;;;;;;16.98;100.00;101288.81;5266122;28;20031;-67
2022/07/26 05:17:10;;;;;;;15.50;5.05;;;;;;;16.92;100.00;101292.09;5266608;28;20028;-67
2022/07/26 05:19:41;;;;;;;13.43;4.32;;;;;;;16.96;100.00;101297.03;5267922;28;20024;-67
2022/07/26 05:22:13;;;;;;;13.68;5.28;;;;;;;16.90;100.00;101300.31;5257005;28;20529;-67
2022/07/26 05:24:44;;;;;;;15.55;4.38;;;;;;;16.90;100.00;101303.03;5262252;28;20078;-67
2022/07/26 05:27:15;;;;;;;14.80;4.68;;;;;;;17.01;100.00;101304.69;5261909;28;20848;-67
2022/07/26 05:29:47;;;;;;;13.13;4.40;;;;;;;16.98;100.00;101305.81;5265015;28;20681;-67
2022/07/26 05:32:18;;;;;;;15.40;4.90;;;;;;;16.93;100.00;101315.34;5271461;28;20055;-67
2022/07/26 05:34:49;;;;;;;13.40;4.85;;;;;;;16.95;100.00;101310.66;5265841;28;20021;-67
2022/07/26 05:37:21;;;;;;;12.38;4.20;;;;;;;17.01;100.00;101319.00;5263467;28;20033;-67
2022/07/26 05:39:52;;;;;;;14.30;4.80;;;;;;;16.99;100.00;101318.31;5271729;28;20107;-67
2022/07/26 05:42:24;;;;;;;15.65;5.53;;;;;;;17.04;100.00;101316.00;5269620;28;20536;-66
2022/07/26 05:44:56;;;;;;;13.73;4.45;;;;;;;17.05;100.00;101317.72;5259695;28;20039;-67
2022/07/26 05:47:27;;;;;;;12.85;4.80;;;;;;;17.08;100.00;101321.13;5264737;28;20024;-67
2022/07/26 05:49:58;;;;;;;14.63;5.25;;;;;;;17.08;100.00;101318.41;5269711;28;20340;-67
2022/07/26 05:52:30;;;;;;;10.40;4.88;;;;;;;17.14;100.00;101325.91;5258695;28;20036;-67
2022/07/26 05:55:01;;;;;;;14.02;5.82;;;;;;;17.21;100.00;101327.84;5267692;28;20026;-67
2022/07/26 05:57:32;;;;;;;12.15;5.18;;;;;;;17.32;100.00;101328.69;5267340;28;20052;-67
2022/07/26 06:00:05;;;;;;;14.75;5.18;;;;;;;17.52;100.00;101332.09;5264053;28;20029;-67
2022/07/26 06:02:36;;;;;;;12.77;4.90;;;;;;;17.63;100.00;101332.75;5270596;28;20146;-67
2022/07/26 06:05:07;;;;;;;13.10;5.20;;;;;;;17.72;100.00;101331.00;5263486;28;20502;-67
2022/07/26 06:07:39;;;;;;;10.88;4.75;;;;;;;17.77;100.00;101325.97;5263430;28;20518;-67
2022/07/26 06:10:10;;;;;;;11.60;5.30;;;;;;;17.76;100.00;101327.00;5265673;28;20051;-67
2022/07/26 06:12:41;;;;;;;11.32;4.70;;;;;;;17.76;99.87;101337.78;5267609;28;20028;-66
2022/07/26 06:15:13;;;;;;;9.07;4.32;;;;;;;17.74;99.58;101333.56;5273477;28;20115;-67
2022/07/26 06:17:44;;;;;;;10.93;4.80;;;;;;;17.74;97.86;101333.56;5270048;28;20025;-67
2022/07/26 06:20:15;;;;;;;13.25;4.55;;;;;;;17.77;99.64;101336.75;5274015;28;20028;-67
2022/07/26 06:22:47;;;;;;;12.43;4.55;;;;;;;17.80;99.12;101336.47;5264946;28;20085;-67
2022/07/26 06:25:18;;;;;;;12.07;4.70;;;;;;;17.81;99.01;101338.19;5269868;28;20610;-67
2022/07/26 06:27:49;;;;;;;10.02;4.55;;;;;;;17.86;97.42;101345.00;5264382;28;20032;-67
2022/07/26 06:30:21;;;;;;;10.95;4.72;;;;;;;17.91;97.33;101350.78;5267407;28;20029;-67
2022/07/26 06:32:52;;;;;;;9.88;4.75;;;;;;;17.91;97.32;101340.84;5274535;28;20050;-66
2022/07/26 06:35:23;;;;;;;10.02;4.32;;;;;;;17.95;96.32;101347.63;5265765;28;20094;-67
2022/07/26 06:37:55;;;;;;;9.27;4.78;;;;;;;17.96;94.98;101343.91;5262488;28;20029;-67
2022/07/26 06:40:26;;;;;;;13.50;4.70;;;;;;;18.02;93.92;101346.03;5265673;28;20521;-67
2022/07/26 06:43:00;;;;;;;10.45;4.72;;;;;;;18.07;93.16;101350.94;5270733;28;20039;-67
2022/07/26 06:45:32;;;;;;;10.80;4.03;;;;;;;18.12;93.76;101359.44;5263798;28;20035;-66
2022/07/26 06:48:04;;;;;;;9.68;4.32;;;;;;;18.23;93.67;101350.25;5269282;28;20040;-66
2022/07/26 06:50:35;;;;;;;8.88;3.75;;;;;;;18.32;93.89;101353.88;5267836;28;20329;-67
2022/07/26 06:53:06;;;;;;;9.15;3.85;;;;;;;18.46;93.32;101356.00;5271006;28;20524;-67
2022/07/26 06:55:37;;;;;;;7.32;3.83;;;;;;;18.49;93.86;101357.56;5264058;28;20025;-67
2022/07/26 06:58:09;;;;;;;13.23;4.47;;;;;;;18.58;92.90;101354.78;5260867;28;20048;-67
2022/07/26 07:00:40;;;;;;;11.13;4.47;;;;;;;18.74;92.03;101369.41;5261205;28;20131;-67
2022/07/26 07:03:11;;;;;;;8.00;3.30;;;;;;;18.84;91.80;101375.59;5268261;28;20036;-67
2022/07/26 07:05:43;;;;;;;6.50;3.00;;;;;;;18.87;88.29;101372.56;5269145;28;20028;-67
2022/07/26 07:08:14;;;;;;;8.70;2.97;;;;;;;18.87;88.36;101377.97;5269405;28;20067;-67
2022/07/26 07:10:46;;;;;;;9.93;3.35;;;;;;;18.97;87.92;101380.59;5267834;28;20028;-69
2022/07/26 07:13:18;;;;;;;7.35;3.00;;;;;;;19.05;86.71;101383.31;5263977;28;20032;-67
2022/07/26 07:15:49;;;;;;;7.97;2.53;;;;;;;19.13;85.41;101377.13;5263586;28;20131;-67
2022/07/26 07:18:20;;;;;;;8.85;2.63;;;;;;;19.34;85.00;101382.13;5268534;28;20039;-68
2022/07/26 07:20:52;;;;;;;9.13;2.80;;;;;;;19.50;84.76;101379.50;5272313;28;20020;-67
2022/07/26 07:23:23;;;;;;;5.55;2.33;;;;;;;19.65;82.80;101382.41;5270340;28;20494;-68
2022/07/26 07:25:54;;;;;;;9.18;2.75;;;;;;;19.68;81.96;101383.97;5273620;28;20471;-67
2022/07/26 07:28:26;;;;;;;7.35;2.30;;;;;;;19.67;81.25;101383.09;5267886;28;20032;-68
2022/07/26 07:30:57;;;;;;;8.60;2.42;;;;;;;19.70;81.56;101380.06;5257350;28;20102;-68
2022/07/26 07:33:28;;;;;;;9.18;1.95;;;;;;;19.71;80.94;101389.03;5262547;28;20032;-68
2022/07/26 07:36:00;;;;;;;8.65;2.10;;;;;;;19.83;79.68;101389.59;5269285;28;20032;-68
2022/07/26 07:38:31;;;;;;;11.30;2.53;;;;;;;19.97;79.05;101387.13;5268458;28;20072;-68
2022/07/26 07:41:02;;;;;;;10.05;2.10;;;;;;;19.99;79.25;101392.38;5265053;28;20542;-68
2022/07/26 07:43:34;;;;;;;8.65;2.28;;;;;;;19.78;78.15;101385.53;5261767;28;20453;-68
2022/07/26 07:46:05;;;;;;;8.60;2.08;;;;;;;19.91;80.53;101393.19;5275591;28;20029;-68
2022/07/26 07:48:39;;;;;;;5.93;2.05;;;;;;;20.02;79.78;101393.88;5265974;28;20537;-68
2022/07/26 07:51:10;;;;;;;;;;;;;;;20.22;80.68;101391.75;5272773;28;20443;-68
2022/07/26 07:53:42;;;;;;;8.23;2.17;;;;;;;20.39;78.34;101390.75;5264769;28;19912;-68
2022/07/26 07:56:13;;;;;;;6.03;2.20;;;;;;;20.53;76.70;101386.50;5271206;28;20321;-68
2022/07/26 07:58:44;;;;;;;6.32;1.95;;;;;;;20.66;76.55;101389.56;5267812;28;20056;-68
2022/07/26 08:01:15;;;;;;;7.68;2.22;;;;;;;20.67;76.46;101387.69;5261745;28;20033;-68
2022/07/26 08:03:47;;;;;;;7.35;2.40;;;;;;;20.41;75.37;101394.13;5265791;28;20698;-67
2022/07/26 08:06:18;;;;;;;6.10;1.90;;;;;;;20.42;75.68;101403.94;5262172;28;20035;-68
2022/07/26 08:08:49;;;;;;;5.50;2.20;;;;;;;20.40;77.14;101405.97;5260502;28;20029;-68
2022/07/26 08:11:21;;;;;;;10.20;2.45;;;;;;;20.30;79.39;101408.00;5271858;28;20090;-68
2022/07/26 08:13:52;;;;;;;6.95;3.00;;;;;;;19.94;81.62;101421.81;5279451;28;20036;-68
2022/07/26 08:16:23;;;;;;;8.52;3.10;;;;;;;19.53;84.06;101408.09;5275740;28;20044;-68
2022/07/26 08:18:55;;;;;;;5.93;2.80;;;;;;;19.26;86.08;101418.09;5272775;28;20032;-68
2022/07/26 08:21:26;;;;;;;3.60;1.50;;;;;;;19.10;89.44;101418.88;5261930;28;20040;-67
2022/07/26 08:23:57;;;;;;;2.38;0.80;;;;;;;18.99;89.86;101429.94;5273586;28;20033;-68
2022/07/26 08:26:29;;;;;;;2.78;0.80;;;;;;;18.96;91.87;101430.25;5261059;28;20056;-67
2022/07/26 08:29:00;;;;;;;1.75;0.60;;;;;;;18.96;93.50;101428.38;5269037;28;20039;-67
2022/07/26 08:31:32;;;;;;;2.17;0.70;;;;;;;18.87;91.91;101436.59;5272709;28;20055;-68
2022/07/26 08:34:03;;;;;;;2.00;0.60;;;;;;;18.79;92.38;101440.06;5267629;28;20522;-68
2022/07/26 08:36:34;;;;;;;3.22;0.80;;;;;;;18.80;93.14;101439.94;5268347;28;20029;-68
2022/07/26 08:39:06;;;;;;;3.05;0.60;;;;;;;18.82;93.96;101445.19;5269926;28;20092;-68
2022/07/26 08:41:39;;;;;;;3.20;0.77;;;;;;;18.83;92.51;101446.03;5280229;28;20031;-68
2022/07/26 08:44:10;;;;;;;2.67;0.73;;;;;;;18.81;92.20;101448.88;5269557;28;20029;-68
2022/07/26 08:46:42;;;;;;;2.88;0.70;;;;;;;18.97;92.42;101443.63;5261169;28;20387;-67
2022/07/26 08:49:13;;;;;;;3.70;0.70;;;;;;;19.06;91.94;101449.94;5280708;28;20105;-68
2022/07/26 08:51:45;;;;;;;1.10;0.43;;;;;;;19.21;91.82;101444.78;5258374;28;20031;-68
2022/07/26 08:54:16;;;;;;;1.83;0.70;;;;;;;19.26;88.87;101453.28;5263989;28;20021;-68
2022/07/26 08:56:50;;;;;;;1.83;0.80;;;;;;;19.43;88.70;101447.97;5261614;28;20753;-68
2022/07/26 08:59:21;;;;;;;1.63;0.70;;;;;;;19.61;88.84;101459.56;5269675;28;20036;-68
2022/07/26 09:02:01;;;;;;;1.60;0.60;;;;;;;19.60;88.46;101452.47;5265917;28;20029;-68
2022/07/26 09:04:35;;;;;;;2.97;0.80;;;;;;;19.86;88.25;101451.56;5271565;28;20094;-68
2022/07/26 09:07:07;;;;;;;2.58;0.65;;;;;;;19.87;86.57;101451.41;5254377;28;20029;-68
2022/07/26 09:09:59;;;;;;;1.88;0.50;;;;;;;20.02;84.63;101456.19;5263517;28;20036;-68
2022/07/26 09:12:32;;;;;;;2.33;0.70;;;;;;;20.35;83.76;101454.44;5271903;28;20060;-68
2022/07/26 09:15:06;;;;;;;1.55;0.60;;;;;;;20.53;80.43;101455.13;5275650;28;20394;-68
2022/07/26 09:17:41;;;;;;;;;;;;;;;20.93;80.82;101458.88;5261032;28;20032;-68
2022/07/26 09:20:14;;;;;;;;;;;;;;;21.18;76.43;101458.84;5265830;28;19920;-68
2022/07/26 09:22:59;;;;;;;2.42;1.00;;;;;;;21.29;79.27;101474.78;5264813;28;19918;-68
2022/07/26 09:25:36;;;;;;;2.08;0.80;;;;;;;21.27;77.87;101474.13;5269695;28;20047;-68
2022/07/26 09:28:43;;;;;;;2.10;0.90;;;;;;;21.56;76.38;101478.16;5259746;28;20078;-68
2022/07/26 09:31:21;;;;;;;2.40;0.82;;;;;;;21.04;77.22;101482.13;5211489;28;20041;-68
2022/07/26 09:33:53;;;;;;;2.63;0.90;;;;;;;21.15;78.02;101475.47;5259672;28;20048;-68
2022/07/26 09:36:25;;;;;;;4.35;1.50;;;;;;;20.88;78.18;101476.69;5267094;28;20024;-68
2022/07/26 09:39:03;;;;;;;4.20;1.10;;;;;;;20.50;80.11;101485.28;5267736;28;20039;-68
2022/07/26 09:41:35;;;;;;;3.95;1.55;;;;;;;19.91;81.01;101492.56;5269512;28;20024;-68
2022/07/26 09:44:24;;;;;;;4.20;1.15;;;;;;;20.01;84.27;101490.56;5278520;28;20070;-68
2022/07/26 09:46:57;;;;;;;3.70;1.00;;;;;;;20.12;85.47;101484.00;5266607;28;20395;-68
2022/07/26 09:49:29;;;;;;;4.38;1.20;;;;;;;20.27;80.07;101492.34;5268081;28;20021;-68
2022/07/26 09:52:00;;;;;;;5.18;1.50;;;;;;;20.36;77.37;101502.19;5266212;28;20024;-68
2022/07/26 09:54:34;;;;;;;4.68;1.40;;;;;;;20.24;77.99;101501.66;5263571;28;20033;-68
2022/07/26 09:57:05;;;;;;;7.55;1.65;;;;;;;20.47;78.34;101501.03;5265575;28;20123;-68
2022/07/26 09:59:37;;;;;;;4.03;1.10;;;;;;;20.67;76.41;101507.88;5279114;28;20097;-69
2022/07/26 10:02:09;;;;;;;6.25;1.40;;;;;;;20.95;77.31;101500.25;5271646;28;20065;-68
2022/07/26 10:04:41;;;;;;;3.15;1.05;;;;;;;21.03;74.49;101506.69;5273359;28;20545;-68
2022/07/26 10:07:13;;;;;;;5.82;1.40;;;;;;;21.03;75.00;101502.13;5272599;28;20032;-68
2022/07/26 10:09:51;;;;;;;3.63;1.10;;;;;;;21.05;74.71;101508.22;5264769;28;20115;-68
2022/07/26 10:12:26;;;;;;;3.53;1.25;;;;;;;21.02;73.97;101508.56;5282919;28;20024;-68
2022/07/26 10:14:58;;;;;;;2.58;0.80;;;;;;;20.68;74.49;101514.16;5271407;28;20074;-68
2022/07/26 10:17:30;;;;;;;3.65;0.90;;;;;;;20.40;78.59;101529.81;5272460;28;20016;-68
2022/07/26 10:20:04;;;;;;;2.90;1.00;;;;;;;20.12;78.73;101525.50;5274839;28;20070;-69
2022/07/26 10:22:39;;;;;;;2.28;0.80;;;;;;;20.01;79.82;101530.38;5286592;28;20070;-68
2022/07/26 10:25:33;;;;;;;3.63;0.73;;;;;;;20.12;79.96;101525.50;5265151;28;20091;-68
2022/07/26 10:28:04;;;;;;;2.92;0.93;;;;;;;20.14;79.26;101538.88;5275095;28;20044;-68
2022/07/26 10:30:36;;;;;;;3.67;1.00;;;;;;;20.02;79.63;101541.03;5274331;28;20024;-68
2022/07/26 10:33:14;;;;;;;2.45;0.73;;;;;;;20.39;79.44;101537.09;5276554;28;20528;-68
2022/07/26 10:35:45;;;;;;;4.38;1.00;;;;;;;20.47;76.56;101536.28;5274815;28;20028;-68
2022/07/26 10:38:17;;;;;;;2.75;0.75;;;;;;;20.95;75.90;101531.97;5275607;28;20025;-69
2022/07/26 10:41:06;;;;;;;2.80;0.90;;;;;;;21.10;73.96;101537.56;5268972;28;20071;-69
2022/07/26 10:43:37;;;;;;;3.03;0.70;;;;;;;21.20;68.39;101537.41;5273000;28;20093;-68
2022/07/26 10:46:11;;;;;;;4.40;0.70;;;;;;;21.29;67.51;101542.66;5273145;28;20024;-68
2022/07/26 10:49:02;;;;;;;3.22;0.73;;;;;;;21.59;67.16;101544.84;5275771;28;20037;-68
2022/07/26 10:51:39;;;;;;;3.25;0.80;;;;;;;21.61;65.48;101550.94;5274059;28;20474;-69
2022/07/26 10:54:12;;;;;;;3.35;0.70;;;;;;;21.73;65.57;101552.28;5268148;28;20032;-68
2022/07/26 10:56:43;;;;;;;4.05;0.52;;;;;;;21.83;64.95;101550.22;5267538;28;20473;-69
2022/07/26 10:59:29;;;;;;;2.08;0.40;;;;;;;22.00;64.81;101561.88;5269235;28;20165;-69
2022/07/26 11:02:01;;;;;;;2.28;0.50;;;;;;;22.03;65.13;101557.97;5270438;28;20142;-69
2022/07/26 11:04:32;;;;;;;2.50;0.52;;;;;;;21.84;64.50;101562.78;5271368;28;20131;-69
2022/07/26 11:07:03;;;;;;;1.58;0.47;;;;;;;21.82;64.60;101561.25;5266528;28;20052;-68
2022/07/26 11:09:35;;;;;;;2.25;0.50;;;;;;;21.95;65.10;101575.13;5268817;28;20027;-69
2022/07/26 11:12:17;;;;;;;3.13;0.50;;;;;;;21.68;66.67;101573.69;5265490;28;20102;-68
2022/07/26 11:14:49;;;;;;;3.55;0.52;;;;;;;21.30;72.00;101582.34;5262959;28;20075;-68
2022/07/26 11:17:26;;;;;;;4.47;0.80;;;;;;;20.54;80.06;101589.66;5282779;28;20021;-69
2022/07/26 11:19:57;;;;;;;4.80;1.00;;;;;;;19.82;88.67;101586.44;5268352;28;20032;-69
2022/07/26 11:22:32;;;;;;;4.53;1.10;;;;;;;19.03;93.46;101593.59;5276868;28;20384;-69
2022/07/26 11:25:04;;;;;;;7.13;1.30;;;;;;;18.90;97.38;101593.13;5274558;28;21083;-70
2022/07/26 11:27:35;;;;;;;3.60;1.30;;;;;;;18.75;96.56;101592.78;5276961;28;20029;-69
2022/07/26 11:30:07;;;;;;;5.28;1.48;;;;;;;19.02;100.00;101588.34;5274236;28;20024;-70
2022/07/26 11:32:38;;;;;;;3.85;1.52;;;;;;;19.25;99.44;101588.72;5266215;28;20047;-70
2022/07/26 11:35:10;;;;;;;5.47;1.73;;;;;;;19.15;97.43;101586.09;5270089;28;20111;-69
2022/07/26 11:37:51;;;;;;;6.18;1.63;;;;;;;19.42;96.71;101590.53;5269020;28;20021;-69
2022/07/26 11:40:58;;;;;;;4.38;1.40;;;;;;;19.77;93.12;101602.31;5264867;28;20523;-69
2022/07/26 11:43:36;;;;;;;3.30;0.88;;;;;;;19.74;89.80;101597.25;5254832;28;20032;-69
2022/07/26 11:46:08;;;;;;;3.70;1.05;;;;;;;20.00;88.57;101583.69;5267984;28;20466;-69
2022/07/26 11:48:45;;;;;;;2.97;0.80;;;;;;;20.00;87.42;101589.13;5271737;28;20033;-69